Schedule Details

Flight Number: CPX431
Departure: Louis Armstrong New Orleans International Airport (KMSY) at N/A
Arrival: Nashville International Airport (KBNA) at N/A
Route: LBY MEI IGB HRTUN CHSNE2


Current Weather Information
KMSY 151953Z 18006KT 9SM FEW008 SCT016 OVC024 20/19 A2984 RMK AO2 RAE39 SLP107 P0001 T02000194
KBNA 151953Z 02011KT 7SM -RA OVC020 07/03 A2987 RMK AO2 SLP115 P0000 T00720028

Route Map